Time;durP1;ratioP1;P1;durP2;ratioP2;P2;SDS_P1;SDS_P2;PMS_P1;PMS_P2;Temp;Humidity;BMP_temperature;BMP_pressure;BME280_temperature;BME280_humidity;BME280_pressure;Samples;Min_cycle;Max_cycle;Signal;HPM_P1;HPM_P2
2022/08/02 00:01:32;;;;;;;2.60;2.45;;;24.60;59.60;;;;;;5046365;28;20184;-90
2022/08/02 00:03:58;;;;;;;5.05;2.88;;;24.70;59.90;;;;;;5042109;28;20188;-88
2022/08/02 00:06:25;;;;;;;3.10;2.90;;;24.60;59.80;;;;;;5028973;28;20192;-88
2022/08/02 00:08:52;;;;;;;3.20;3.00;;;24.60;59.90;;;;;;5025201;28;20213;-89
2022/08/02 00:11:18;;;;;;;2.75;2.55;;;24.60;60.00;;;;;;5045247;28;20219;-89
2022/08/02 00:13:44;;;;;;;2.92;2.72;;;24.60;59.60;;;;;;5043358;28;20234;-89
2022/08/02 00:16:12;;;;;;;2.97;2.55;;;24.60;60.10;;;;;;5042815;28;20187;-89
2022/08/02 00:18:38;;;;;;;2.85;2.65;;;24.60;60.40;;;;;;5043173;28;20223;-89
2022/08/02 00:21:04;;;;;;;3.15;2.92;;;24.50;60.20;;;;;;5043142;28;20266;-88
2022/08/02 00:23:30;;;;;;;4.63;2.97;;;24.60;59.80;;;;;;5040843;28;20184;-89
2022/08/02 00:25:56;;;;;;;3.10;2.90;;;24.60;59.50;;;;;;5039764;28;20276;-88
2022/08/02 00:28:23;;;;;;;2.80;2.60;;;24.60;59.70;;;;;;5039844;28;20779;-89
2022/08/02 00:30:49;;;;;;;2.85;2.65;;;24.50;60.00;;;;;;5043374;28;20676;-89
2022/08/02 00:33:15;;;;;;;3.17;2.90;;;24.50;59.60;;;;;;5041285;28;20192;-89
2022/08/02 00:35:40;;;;;;;3.17;2.97;;;24.60;59.30;;;;;;5036159;28;20193;-89
2022/08/02 00:38:06;;;;;;;3.13;2.83;;;24.60;59.40;;;;;;5044994;28;20222;-89
2022/08/02 00:40:32;;;;;;;3.08;2.88;;;24.30;61.00;;;;;;5048426;28;20260;-89
2022/08/02 00:43:06;;;;;;;3.17;2.72;;;24.30;61.20;;;;;;5023606;28;20404;-89
2022/08/02 00:45:38;;;;;;;3.00;2.80;;;24.20;61.80;;;;;;5037096;28;20184;-89
2022/08/02 00:48:06;;;;;;;2.90;2.78;;;24.10;61.60;;;;;;5046533;28;20196;-89
2022/08/02 00:50:32;;;;;;;2.88;2.67;;;24.00;62.50;;;;;;5046604;28;20873;-89
2022/08/02 00:52:59;;;;;;;3.28;2.97;;;23.90;62.80;;;;;;5044517;28;20833;-87
2022/08/02 00:55:26;;;;;;;2.80;2.60;;;23.90;63.10;;;;;;5039863;28;20211;-88
2022/08/02 00:57:52;;;;;;;2.95;2.75;;;23.70;63.80;;;;;;5036012;28;20279;-88
2022/08/02 01:00:18;;;;;;;2.70;2.50;;;23.60;63.40;;;;;;5039419;28;20195;-87
2022/08/02 01:02:44;;;;;;;3.10;2.83;;;23.70;63.20;;;;;;5028902;28;20239;-88
2022/08/02 01:05:10;;;;;;;2.85;2.60;;;23.70;63.40;;;;;;5043526;28;20219;-88
2022/08/02 01:07:36;;;;;;;3.55;2.95;;;23.70;63.00;;;;;;5048126;28;20203;-88
2022/08/02 01:10:03;;;;;;;3.30;3.00;;;23.90;62.40;;;;;;5041301;28;20274;-88
2022/08/02 01:12:29;;;;;;;3.10;2.83;;;23.90;62.20;;;;;;5045004;28;20184;-87
2022/08/02 01:14:59;;;;;;;3.10;2.88;;;23.70;63.50;;;;;;5043661;28;20181;-87
2022/08/02 01:17:28;;;;;;;3.25;2.65;;;23.60;63.60;;;;;;5035311;28;20220;-87
2022/08/02 01:20:11;;;;;;;2.90;2.70;;;23.40;64.30;;;;;;5045325;28;20193;-88
2022/08/02 01:23:01;;;;;;;2.47;2.38;;;23.40;64.20;;;;;;5044947;28;20180;-88
2022/08/02 01:25:49;;;;;;;3.42;2.80;;;23.50;63.70;;;;;;5045112;28;20230;-87
2022/08/02 01:28:32;;;;;;;2.95;2.50;;;23.60;63.10;;;;;;5043849;28;20243;-88
2022/08/02 01:31:20;;;;;;;3.00;2.80;;;23.60;62.80;;;;;;5048257;28;20246;-88
2022/08/02 01:34:00;;;;;;;2.78;2.58;;;23.70;62.50;;;;;;5033289;28;20192;-87
2022/08/02 01:36:30;;;;;;;2.78;2.58;;;23.70;62.20;;;;;;5050402;28;20183;-87
2022/08/02 01:38:59;;;;;;;2.78;2.58;;;23.80;61.80;;;;;;5006829;28;20211;-87
2022/08/02 01:41:27;;;;;;;3.25;2.78;;;23.80;61.90;;;;;;5039371;28;20275;-88
2022/08/02 01:44:00;;;;;;;2.75;2.55;;;23.90;61.40;;;;;;5043577;28;20199;-87
2022/08/02 01:46:29;;;;;;;2.80;2.60;;;24.00;61.00;;;;;;5045271;28;20188;-87
2022/08/02 01:48:57;;;;;;;4.60;2.80;;;24.00;60.70;;;;;;5039324;28;20648;-87
2022/08/02 01:54:15;;;;;;;3.45;2.80;;;23.90;61.50;;;;;;5040380;28;20230;-88
2022/08/02 01:56:43;;;;;;;2.63;2.53;;;23.70;62.30;;;;;;5043885;28;20751;-87
2022/08/02 01:59:12;;;;;;;3.20;2.90;;;23.70;62.30;;;;;;5045725;28;20301;-87
2022/08/02 02:01:39;;;;;;;3.05;2.78;;;23.60;63.00;;;;;;5044931;28;20261;-88
2022/08/02 02:04:07;;;;;;;2.85;2.63;;;23.60;62.50;;;;;;5054742;28;20180;-87
2022/08/02 02:06:35;;;;;;;2.60;2.47;;;23.60;62.90;;;;;;5049518;28;20192;-88
2022/08/02 02:09:02;;;;;;;2.83;2.67;;;23.40;63.70;;;;;;5048417;28;20212;-87
2022/08/02 02:11:28;;;;;;;2.63;2.42;;;23.40;64.20;;;;;;5045741;28;20245;-87
2022/08/02 02:13:58;;;;;;;3.95;3.30;;;23.30;64.20;;;;;;5049181;28;20526;-87
2022/08/02 02:16:26;;;;;;;2.70;2.55;;;23.30;64.60;;;;;;5045042;28;20192;-87
2022/08/02 02:18:53;;;;;;;3.00;2.80;;;23.30;64.40;;;;;;5039160;28;20216;-87
2022/08/02 02:21:19;;;;;;;2.67;2.58;;;23.30;64.40;;;;;;5043898;28;20231;-87
2022/08/02 02:23:45;;;;;;;3.97;2.92;;;23.30;64.20;;;;;;5029746;28;20184;-88
2022/08/02 02:26:14;;;;;;;3.05;2.85;;;23.30;64.50;;;;;;5049798;28;20237;-87
2022/08/02 02:28:42;;;;;;;2.80;2.50;;;23.20;64.40;;;;;;5030451;28;20224;-87
2022/08/02 02:31:11;;;;;;;3.33;3.03;;;23.10;64.70;;;;;;5057193;28;20180;-87
2022/08/02 02:33:51;;;;;;;3.10;2.90;;;23.20;64.40;;;;;;5033215;28;20212;-86
2022/08/02 02:36:20;;;;;;;3.67;3.05;;;23.10;65.10;;;;;;5043058;28;20220;-86
2022/08/02 02:38:47;;;;;;;4.35;2.60;;;23.00;65.10;;;;;;5066970;28;20295;-87
2022/08/02 02:41:15;;;;;;;3.15;2.88;;;23.00;65.40;;;;;;5066546;28;20350;-86
2022/08/02 02:43:43;;;;;;;2.90;2.70;;;22.90;65.40;;;;;;5054008;28;20215;-87
2022/08/02 02:46:09;;;;;;;4.13;2.85;;;22.80;65.70;;;;;;5045372;28;20188;-87
2022/08/02 02:48:36;;;;;;;3.00;2.80;;;23.00;65.70;;;;;;5027898;28;20217;-87
2022/08/02 02:51:04;;;;;;;2.67;2.58;;;23.00;65.20;;;;;;5046049;28;20201;-88
2022/08/02 02:53:31;;;;;;;5.03;2.83;;;23.10;65.10;;;;;;5025606;28;20275;-87
2022/08/02 02:55:57;;;;;;;3.08;2.58;;;23.10;64.70;;;;;;5045002;28;20196;-87
2022/08/02 02:58:24;;;;;;;2.72;2.55;;;23.10;64.30;;;;;;5045722;28;20204;-88
2022/08/02 03:03:37;;;;;;;2.83;2.70;;;23.00;64.70;;;;;;5042626;28;20558;-87
2022/08/02 03:06:03;;;;;;;2.53;2.42;;;22.90;65.10;;;;;;5031400;28;20208;-87
2022/08/02 03:08:29;;;;;;;3.20;2.95;;;22.90;65.40;;;;;;5043650;28;20258;-87
2022/08/02 03:10:55;;;;;;;3.03;2.83;;;22.80;65.80;;;;;;5014167;28;20238;-88
2022/08/02 03:13:22;;;;;;;3.35;2.85;;;22.70;67.10;;;;;;5048068;28;20271;-87
2022/08/02 03:15:52;;;;;;;2.92;2.72;;;22.70;67.50;;;;;;5031747;28;20260;-87
2022/08/02 03:18:41;;;;;;;3.00;2.80;;;22.70;67.80;;;;;;5044470;28;20572;-87
2022/08/02 03:21:10;;;;;;;3.20;3.00;;;22.80;67.40;;;;;;5026686;28;20194;-87
2022/08/02 03:23:38;;;;;;;3.50;3.20;;;22.90;67.50;;;;;;5043510;28;20180;-88
2022/08/02 03:26:05;;;;;;;3.10;2.90;;;22.80;68.00;;;;;;5040756;28;20267;-88
2022/08/02 03:28:31;;;;;;;4.40;3.30;;;22.80;67.60;;;;;;5045452;28;20197;-88
2022/08/02 03:30:56;;;;;;;3.17;2.97;;;22.90;67.90;;;;;;5040238;28;20192;-87
2022/08/02 03:33:24;;;;;;;2.83;2.72;;;22.90;67.50;;;;;;5047242;28;20575;-88
2022/08/02 03:35:52;;;;;;;3.28;3.08;;;22.90;67.50;;;;;;5042049;28;20216;-87
2022/08/02 03:38:20;;;;;;;3.38;3.05;;;22.70;69.30;;;;;;5043490;28;20286;-86
2022/08/02 03:40:56;;;;;;;3.22;2.95;;;22.60;69.90;;;;;;5047679;28;20213;-89
2022/08/02 03:43:28;;;;;;;3.15;2.95;;;22.60;69.30;;;;;;5041254;28;20219;-89
2022/08/02 03:45:55;;;;;;;3.08;2.88;;;22.60;70.10;;;;;;5042305;28;20208;-87
2022/08/02 03:48:22;;;;;;;3.35;2.88;;;22.50;70.40;;;;;;5044906;28;20822;-83
2022/08/02 03:50:48;;;;;;;3.40;3.10;;;22.60;69.60;;;;;;5033865;28;20203;-84
2022/08/02 03:53:15;;;;;;;3.08;2.88;;;22.70;70.10;;;;;;5044740;28;20242;-83
2022/08/02 03:55:41;;;;;;;3.22;3.03;;;22.80;69.40;;;;;;5040324;28;20719;-83
2022/08/02 03:58:07;;;;;;;3.33;3.08;;;22.80;68.70;;;;;;5048311;28;20212;-84
2022/08/02 04:00:33;;;;;;;4.03;3.30;;;22.90;68.40;;;;;;5045781;28;20720;-85
2022/08/02 04:02:59;;;;;;;3.72;3.40;;;22.80;68.20;;;;;;5046879;28;20200;-85
2022/08/02 04:05:25;;;;;;;4.93;3.17;;;22.80;68.50;;;;;;5035041;28;20200;-84
2022/08/02 04:07:51;;;;;;;4.90;3.10;;;22.70;69.30;;;;;;5041644;28;20216;-84
2022/08/02 04:10:17;;;;;;;7.93;3.88;;;22.70;68.90;;;;;;5043788;28;20291;-85
2022/08/02 04:12:43;;;;;;;4.63;3.10;;;22.80;68.90;;;;;;5042036;28;20235;-85
2022/08/02 04:15:13;;;;;;;3.65;3.30;;;22.70;69.70;;;;;;5038397;28;20252;-86
2022/08/02 04:17:56;;;;;;;4.10;3.33;;;22.70;68.70;;;;;;5036508;28;20201;-85
2022/08/02 04:20:26;;;;;;;5.88;3.05;;;22.70;68.90;;;;;;5043080;28;20184;-85
2022/08/02 04:22:55;;;;;;;4.45;3.50;;;22.80;68.70;;;;;;5041353;28;20184;-85
2022/08/02 04:25:24;;;;;;;5.57;3.70;;;22.80;68.90;;;;;;5033939;28;20258;-84
2022/08/02 04:27:50;;;;;;;5.53;3.45;;;22.80;68.50;;;;;;5043711;28;20283;-85
2022/08/02 04:30:16;;;;;;;5.53;3.40;;;22.80;68.90;;;;;;5044537;28;20229;-85
2022/08/02 04:32:44;;;;;;;3.92;3.50;;;22.70;69.20;;;;;;5042313;28;20176;-85
2022/08/02 04:35:10;;;;;;;6.63;3.50;;;22.80;68.90;;;;;;5043665;28;20235;-86
2022/08/02 04:37:40;;;;;;;7.70;3.65;;;22.80;68.60;;;;;;5039390;28;20205;-86
2022/08/02 04:40:10;;;;;;;5.88;3.70;;;22.80;69.00;;;;;;5043553;28;20330;-87
2022/08/02 04:42:37;;;;;;;7.88;3.50;;;22.80;69.20;;;;;;5038081;28;20847;-85
2022/08/02 04:45:04;;;;;;;9.18;3.50;;;22.80;69.40;;;;;;5044812;28;20192;-84
2022/08/02 04:47:29;;;;;;;6.57;3.33;;;22.70;70.10;;;;;;5041905;28;20264;-84
2022/08/02 04:49:55;;;;;;;8.68;3.70;;;22.70;70.60;;;;;;5045239;28;20239;-84
2022/08/02 04:52:21;;;;;;;3.80;3.40;;;22.50;72.00;;;;;;5041512;28;20195;-86
2022/08/02 04:54:46;;;;;;;4.30;3.50;;;22.50;72.90;;;;;;5038157;28;20202;-84
2022/08/02 04:57:58;;;;;;;3.78;3.28;;;22.50;73.60;;;;;;5033771;28;20203;-84
2022/08/02 04:59:58;;;;;;;3.80;3.33;;;22.60;72.60;;;;;;5048833;28;20226;-84
2022/08/02 05:02:24;;;;;;;11.25;4.78;;;22.70;72.40;;;;;;5044249;28;20212;-85
2022/08/02 05:04:50;;;;;;;4.93;3.30;;;22.80;73.70;;;;;;5049612;28;20188;-85
2022/08/02 05:07:16;;;;;;;5.53;3.63;;;22.90;73.00;;;;;;5045220;28;20557;-83
2022/08/02 05:09:41;;;;;;;8.38;4.43;;;22.90;72.00;;;;;;5041645;28;20232;-84
2022/08/02 05:12:08;;;;;;;4.10;3.78;;;22.90;73.50;;;;;;5043590;28;20189;-83
2022/08/02 05:14:34;;;;;;;3.60;3.40;;;22.90;73.50;;;;;;5046956;28;20296;-84
2022/08/02 05:17:00;;;;;;;6.85;3.67;;;22.80;73.50;;;;;;5043034;28;20971;-84
2022/08/02 05:19:25;;;;;;;3.80;3.45;;;22.80;73.60;;;;;;5045820;28;20193;-83
2022/08/02 05:21:51;;;;;;;6.82;3.70;;;22.80;74.10;;;;;;5058651;28;20661;-83
2022/08/02 05:24:17;;;;;;;10.13;4.65;;;22.80;73.70;;;;;;5046542;28;20220;-84
2022/08/02 05:26:43;;;;;;;5.35;4.43;;;22.90;74.00;;;;;;5044318;28;20189;-84
2022/08/02 05:29:08;;;;;;;3.90;3.58;;;22.90;74.40;;;;;;5044685;28;20205;-84
2022/08/02 05:31:34;;;;;;;3.90;3.55;;;22.80;74.50;;;;;;5045159;28;20210;-83
2022/08/02 05:34:02;;;;;;;5.45;3.80;;;22.80;74.50;;;;;;5045296;28;20553;-83
2022/08/02 05:36:28;;;;;;;4.13;3.83;;;22.90;74.20;;;;;;5039713;28;20215;-83
2022/08/02 05:38:54;;;;;;;5.20;4.10;;;22.90;75.00;;;;;;5037026;28;20256;-84
2022/08/02 05:41:20;;;;;;;5.57;3.95;;;23.00;75.20;;;;;;5043880;28;20823;-85
2022/08/02 05:43:46;;;;;;;5.07;4.18;;;23.10;74.60;;;;;;5038776;28;20584;-85
2022/08/02 05:46:12;;;;;;;5.45;4.38;;;23.10;75.90;;;;;;5041074;28;20546;-85
2022/08/02 05:48:38;;;;;;;4.50;4.10;;;23.10;75.60;;;;;;5047987;28;20223;-84
2022/08/02 05:51:09;;;;;;;4.25;3.95;;;23.00;75.70;;;;;;5046145;28;20348;-85
2022/08/02 05:53:44;;;;;;;5.60;4.38;;;22.90;76.90;;;;;;5041106;28;20199;-85
2022/08/02 05:56:25;;;;;;;4.68;4.28;;;22.90;75.50;;;;;;5043077;28;20196;-84
2022/08/02 05:59:04;;;;;;;4.22;3.88;;;22.90;75.30;;;;;;5053942;28;20204;-85
2022/08/02 06:01:39;;;;;;;4.20;3.80;;;23.00;75.00;;;;;;5048414;28;20180;-86
2022/08/02 06:04:07;;;;;;;4.28;3.97;;;23.10;74.50;;;;;;5049507;28;20260;-85
2022/08/02 06:06:34;;;;;;;5.32;4.93;;;23.20;73.40;;;;;;5051258;28;20192;-85
2022/08/02 06:09:13;;;;;;;4.75;4.35;;;23.30;72.70;;;;;;5045356;28;20231;-85
2022/08/02 06:11:44;;;;;;;4.22;3.95;;;23.40;72.40;;;;;;5042408;28;20172;-85
2022/08/02 06:14:11;;;;;;;4.80;4.40;;;23.20;71.80;;;;;;5035591;28;20663;-87
2022/08/02 06:16:38;;;;;;;4.72;4.43;;;23.20;73.60;;;;;;5052008;28;20189;-85
2022/08/02 06:19:05;;;;;;;7.65;5.38;;;23.30;73.00;;;;;;5046479;28;20258;-85
2022/08/02 06:21:31;;;;;;;5.00;4.60;;;23.40;72.10;;;;;;5016295;28;20193;-86
2022/08/02 06:23:57;;;;;;;5.28;4.85;;;23.40;71.80;;;;;;5029234;28;20193;-85
2022/08/02 06:26:43;;;;;;;5.15;4.75;;;23.50;70.90;;;;;;5031636;28;20189;-86
2022/08/02 06:29:12;;;;;;;5.85;4.55;;;23.50;71.20;;;;;;5030815;28;20213;-86
2022/08/02 06:31:41;;;;;;;5.80;4.75;;;23.50;71.10;;;;;;5035203;28;20181;-85
2022/08/02 06:34:06;;;;;;;5.53;5.13;;;23.60;69.60;;;;;;5025406;28;20196;-85
2022/08/02 06:36:50;;;;;;;5.22;4.78;;;23.60;70.00;;;;;;5025133;28;20186;-85
2022/08/02 06:39:50;;;;;;;5.10;4.70;;;23.70;68.20;;;;;;5027239;28;20725;-85
2022/08/02 06:42:29;;;;;;;5.45;4.30;;;23.70;68.70;;;;;;5020516;28;20200;-85
2022/08/02 06:44:55;;;;;;;5.25;4.88;;;23.70;70.20;;;;;;5024074;28;20188;-85
2022/08/02 06:47:21;;;;;;;5.57;4.72;;;23.60;69.70;;;;;;5032433;28;20830;-84
2022/08/02 06:49:47;;;;;;;5.60;5.20;;;23.70;68.70;;;;;;5042066;28;20243;-85
2022/08/02 06:52:13;;;;;;;5.55;5.05;;;23.70;68.60;;;;;;5035482;28;20788;-85
2022/08/02 06:54:41;;;;;;;4.70;4.30;;;23.70;68.90;;;;;;5025878;28;20201;-85
2022/08/02 06:57:08;;;;;;;4.63;4.32;;;23.70;67.90;;;;;;5008260;28;20264;-85
2022/08/02 06:59:35;;;;;;;5.43;4.93;;;23.80;68.30;;;;;;5036946;28;20197;-83
2022/08/02 07:02:01;;;;;;;5.90;4.68;;;24.00;67.80;;;;;;5037883;28;20194;-85
2022/08/02 07:04:28;;;;;;;5.07;4.68;;;24.00;68.10;;;;;;5029235;28;20193;-85
2022/08/02 07:06:55;;;;;;;5.00;4.70;;;24.00;68.30;;;;;;5025855;28;20751;-85
2022/08/02 07:09:21;;;;;;;5.47;4.93;;;24.00;68.00;;;;;;5031959;28;20217;-85
2022/08/02 07:11:47;;;;;;;4.93;4.53;;;24.10;67.70;;;;;;5041605;28;20181;-85
2022/08/02 07:14:12;;;;;;;5.25;4.95;;;24.10;68.40;;;;;;5040444;28;20245;-85
2022/08/02 07:16:39;;;;;;;4.85;4.55;;;24.10;68.00;;;;;;5031774;28;20200;-85
2022/08/02 07:19:04;;;;;;;5.72;5.03;;;24.30;67.40;;;;;;5029579;28;20237;-86
2022/08/02 07:21:30;;;;;;;4.90;4.60;;;24.40;66.70;;;;;;5022641;28;20198;-85
2022/08/02 07:23:56;;;;;;;4.85;4.47;;;24.50;66.70;;;;;;5046367;28;20188;-85
2022/08/02 07:26:21;;;;;;;5.20;4.70;;;24.50;66.30;;;;;;5050824;28;20196;-87
2022/08/02 07:28:48;;;;;;;5.47;4.95;;;24.50;66.20;;;;;;5044387;28;20234;-89
2022/08/02 07:31:13;;;;;;;5.63;4.85;;;24.60;66.20;;;;;;5044946;28;20192;-88
2022/08/02 07:33:39;;;;;;;4.75;4.32;;;24.70;66.50;;;;;;5039274;28;20303;-88
2022/08/02 07:36:07;;;;;;;5.60;4.30;;;24.70;66.40;;;;;;5037391;28;20243;-89
2022/08/02 07:38:33;;;;;;;4.95;4.55;;;24.70;67.60;;;;;;5035071;28;20660;-89
2022/08/02 07:40:59;;;;;;;4.93;4.53;;;24.90;65.40;;;;;;5033334;28;20216;-89
2022/08/02 07:43:25;;;;;;;5.03;4.60;;;25.00;64.90;;;;;;5039132;28;20238;-89
2022/08/02 07:45:50;;;;;;;5.00;4.70;;;25.10;63.60;;;;;;5035333;28;20252;-89
2022/08/02 07:48:18;;;;;;;5.22;4.82;;;25.10;64.50;;;;;;5045694;28;20212;-89
2022/08/02 07:50:45;;;;;;;5.28;4.82;;;25.00;64.30;;;;;;5042948;28;20209;-89
2022/08/02 07:53:11;;;;;;;5.57;5.05;;;25.20;64.60;;;;;;5037768;28;20287;-88
2022/08/02 07:55:36;;;;;;;7.95;7.22;;;24.90;65.60;;;;;;5034299;28;20267;-89
2022/08/02 07:58:03;;;;;;;5.38;5.07;;;25.10;64.70;;;;;;5036677;28;20612;-89
2022/08/02 08:00:29;;;;;;;5.28;4.80;;;25.30;63.60;;;;;;5037068;28;20680;-89
2022/08/02 08:02:55;;;;;;;5.78;5.38;;;25.50;62.50;;;;;;5034000;28;20196;-90
2022/08/02 08:05:22;;;;;;;6.38;5.88;;;25.60;61.80;;;;;;5031828;28;20189;-89
2022/08/02 08:07:48;;;;;;;6.88;6.20;;;25.60;59.00;;;;;;5032027;28;20727;-89
2022/08/02 08:10:13;;;;;;;6.05;5.65;;;25.50;58.50;;;;;;5033320;28;20227;-88
2022/08/02 08:12:39;;;;;;;6.10;5.68;;;25.50;58.60;;;;;;5035508;28;20196;-89
2022/08/02 08:15:06;;;;;;;6.18;5.75;;;25.70;59.00;;;;;;5035095;28;20861;-89
2022/08/02 08:17:31;;;;;;;6.50;5.95;;;25.60;58.90;;;;;;5035257;28;20245;-89
2022/08/02 08:19:57;;;;;;;6.18;5.78;;;25.60;58.40;;;;;;5035576;28;20183;-89
2022/08/02 08:22:23;;;;;;;5.90;5.50;;;25.70;57.60;;;;;;5034540;28;20238;-89
2022/08/02 08:24:49;;;;;;;6.25;5.75;;;25.80;57.80;;;;;;5026682;28;20677;-88
2022/08/02 08:27:16;;;;;;;6.15;5.45;;;25.70;58.10;;;;;;5032885;28;20200;-89
2022/08/02 08:29:42;;;;;;;6.57;6.07;;;25.90;57.40;;;;;;5030447;28;20303;-89
2022/08/02 08:32:09;;;;;;;6.80;6.22;;;26.10;57.10;;;;;;5034893;28;20596;-89
2022/08/02 08:34:34;;;;;;;6.43;5.93;;;25.80;57.30;;;;;;5032646;28;20268;-89
2022/08/02 08:37:02;;;;;;;8.70;6.38;;;25.80;57.10;;;;;;5038285;28;20342;-89
2022/08/02 08:39:28;;;;;;;6.57;6.07;;;25.80;57.60;;;;;;5036875;28;20238;-89
2022/08/02 08:41:54;;;;;;;6.80;6.30;;;25.70;58.50;;;;;;5028955;28;20299;-89
2022/08/02 08:44:20;;;;;;;6.30;5.80;;;25.60;58.30;;;;;;5034008;28;20445;-89
2022/08/02 08:46:48;;;;;;;6.32;5.70;;;26.10;57.40;;;;;;5034294;28;20692;-89
2022/08/02 08:49:26;;;;;;;6.00;5.60;;;26.40;56.80;;;;;;5035102;28;20232;-89
2022/08/02 08:51:54;;;;;;;5.78;5.32;;;26.60;56.00;;;;;;5039850;28;20180;-88
2022/08/02 08:54:24;;;;;;;6.18;5.57;;;26.60;54.60;;;;;;5034356;28;20177;-89
2022/08/02 08:56:51;;;;;;;5.90;5.38;;;26.60;54.90;;;;;;5036704;28;20196;-89
2022/08/02 08:59:17;;;;;;;6.78;6.22;;;26.80;53.90;;;;;;5031280;28;20206;-89
2022/08/02 09:01:45;;;;;;;5.75;5.32;;;27.00;53.20;;;;;;5036687;28;20191;-89
2022/08/02 09:04:11;;;;;;;5.47;5.07;;;27.00;52.20;;;;;;5033887;28;20196;-89
2022/08/02 09:06:38;;;;;;;6.07;5.57;;;27.20;52.20;;;;;;5032363;28;20196;-89
2022/08/02 09:09:04;;;;;;;5.95;5.45;;;27.40;51.50;;;;;;5037453;28;20348;-89
2022/08/02 09:11:30;;;;;;;6.32;5.85;;;27.60;51.70;;;;;;5038280;28;20212;-89
2022/08/02 09:13:57;;;;;;;5.82;5.35;;;27.60;51.30;;;;;;5029873;28;20192;-89
2022/08/02 09:16:38;;;;;;;6.32;5.82;;;27.60;51.30;;;;;;5030717;28;20279;-89
2022/08/02 09:19:17;;;;;;;7.88;5.82;;;27.40;51.70;;;;;;5027692;28;20212;-89
2022/08/02 09:21:43;;;;;;;5.40;4.80;;;27.50;51.40;;;;;;5034498;28;20613;-90
2022/08/02 09:24:22;;;;;;;5.30;4.88;;;27.70;50.40;;;;;;5036720;28;20902;-89
2022/08/02 09:26:49;;;;;;;11.77;5.40;;;27.80;48.50;;;;;;5033076;28;20197;-89
2022/08/02 09:29:17;;;;;;;6.10;4.75;;;27.90;48.20;;;;;;5036191;28;20196;-89
2022/08/02 09:31:43;;;;;;;5.10;4.80;;;28.00;48.60;;;;;;5032008;28;20188;-89
2022/08/02 09:34:09;;;;;;;5.50;5.10;;;28.10;48.30;;;;;;5038813;28;20177;-86
2022/08/02 09:36:43;;;;;;;6.28;5.45;;;28.40;49.20;;;;;;5040165;28;20680;-89
2022/08/02 09:39:11;;;;;;;6.28;5.65;;;28.50;48.80;;;;;;5046809;28;20280;-88
2022/08/02 09:41:42;;;;;;;5.38;5.07;;;28.70;48.10;;;;;;5054574;28;20176;-90
2022/08/02 09:44:10;;;;;;;5.35;4.85;;;28.70;46.70;;;;;;5055413;28;20181;-89
2022/08/02 09:46:38;;;;;;;5.70;5.20;;;28.80;46.40;;;;;;5065122;28;20206;-88
2022/08/02 09:49:11;;;;;;;5.47;5.00;;;28.90;45.60;;;;;;5064340;28;20223;-87
2022/08/02 09:51:49;;;;;;;5.60;5.10;;;28.80;47.30;;;;;;5056146;28;20204;-89
2022/08/02 09:54:35;;;;;;;5.80;5.40;;;28.90;46.60;;;;;;5039639;28;20185;-87
2022/08/02 09:57:01;;;;;;;6.57;5.50;;;28.90;46.80;;;;;;5041191;28;20619;-88
2022/08/02 09:59:28;;;;;;;5.13;4.72;;;29.10;46.10;;;;;;5038959;28;20192;-87
2022/08/02 10:01:55;;;;;;;5.90;5.35;;;29.50;46.50;;;;;;5037494;28;20192;-87
2022/08/02 10:04:23;;;;;;;5.35;4.90;;;29.50;44.20;;;;;;5022803;28;20208;-88
2022/08/02 10:06:50;;;;;;;5.95;4.70;;;29.50;44.10;;;;;;5027316;28;20674;-88
2022/08/02 10:09:17;;;;;;;5.40;5.03;;;29.70;43.00;;;;;;5034296;28;20561;-88
2022/08/02 10:11:51;;;;;;;5.22;4.82;;;30.00;42.90;;;;;;5035607;28;20864;-88
2022/08/02 10:14:19;;;;;;;4.75;4.45;;;30.10;41.90;;;;;;5039915;28;20262;-88
2022/08/02 10:16:45;;;;;;;8.85;4.90;;;30.30;41.50;;;;;;5040161;28;20265;-89
2022/08/02 10:19:10;;;;;;;5.50;5.03;;;30.30;40.60;;;;;;5034396;28;20803;-88
2022/08/02 10:21:39;;;;;;;5.28;4.97;;;30.30;40.10;;;;;;5038982;28;20227;-88
2022/08/02 10:24:08;;;;;;;7.95;5.50;;;30.50;41.10;;;;;;5037269;28;20201;-88
2022/08/02 10:26:35;;;;;;;6.07;5.55;;;30.60;41.00;;;;;;5039596;28;20652;-88
2022/08/02 10:29:01;;;;;;;5.43;5.13;;;30.40;41.80;;;;;;5039204;28;20260;-88
2022/08/02 10:31:47;;;;;;;6.35;5.15;;;30.50;41.30;;;;;;5036952;28;20180;-88
2022/08/02 10:34:17;;;;;;;12.13;5.90;;;30.10;41.40;;;;;;5032267;28;20237;-88
2022/08/02 10:36:45;;;;;;;5.97;5.38;;;30.20;41.90;;;;;;5037523;28;20193;-88
2022/08/02 10:39:11;;;;;;;6.22;5.82;;;30.30;41.70;;;;;;5033795;28;20212;-88
2022/08/02 10:41:44;;;;;;;7.07;6.40;;;30.60;42.00;;;;;;5035737;28;20275;-88
2022/08/02 10:44:29;;;;;;;5.90;5.40;;;30.90;40.00;;;;;;5039254;28;20325;-88
2022/08/02 10:47:13;;;;;;;13.55;6.40;;;31.00;39.90;;;;;;5034850;28;20214;-88
2022/08/02 10:49:52;;;;;;;5.60;5.30;;;31.20;39.60;;;;;;5040586;28;20223;-88
2022/08/02 10:52:20;;;;;;;5.50;5.13;;;31.40;38.10;;;;;;5031360;28;20184;-88
2022/08/02 10:54:56;;;;;;;6.05;5.65;;;31.20;39.00;;;;;;5033304;28;20219;-88
2022/08/02 10:57:34;;;;;;;9.57;5.32;;;31.50;37.50;;;;;;5047420;23;20208;-85
2022/08/02 10:59:59;;;;;;;5.28;4.88;;;31.60;37.30;;;;;;5041897;28;20169;-86
2022/08/02 11:02:54;;;;;;;5.15;4.85;;;31.60;36.80;;;;;;5034172;28;20199;-86
2022/08/02 11:05:31;;;;;;;5.40;4.93;;;32.00;36.50;;;;;;5023316;28;20247;-86
2022/08/02 11:07:57;;;;;;;5.97;5.25;;;31.80;36.10;;;;;;5047017;28;20200;-86
2022/08/02 11:10:33;;;;;;;5.25;4.85;;;32.30;35.40;;;;;;5036725;28;20209;-86
2022/08/02 11:13:14;;;;;;;5.95;5.65;;;32.50;35.10;;;;;;5032731;28;20270;-86
2022/08/02 11:15:49;;;;;;;5.85;5.45;;;32.60;35.00;;;;;;5032427;28;20200;-86
2022/08/02 11:18:15;;;;;;;6.20;5.80;;;32.80;35.00;;;;;;5022764;28;20198;-86
2022/08/02 11:20:41;;;;;;;6.00;5.57;;;32.70;35.10;;;;;;5028816;28;20239;-86
2022/08/02 11:23:37;;;;;;;6.18;5.57;;;32.80;34.40;;;;;;5031988;28;20605;-86
2022/08/02 11:26:31;;;;;;;5.57;5.18;;;32.80;34.30;;;;;;5025637;28;20192;-86
2022/08/02 11:29:03;;;;;;;5.88;5.47;;;32.50;34.10;;;;;;5028876;28;20263;-86
2022/08/02 11:31:37;;;;;;;5.70;5.30;;;32.20;35.00;;;;;;5031839;28;20223;-85
2022/08/02 11:34:04;;;;;;;5.85;5.55;;;32.30;35.00;;;;;;5028687;28;20220;-86
2022/08/02 11:36:30;;;;;;;6.00;5.60;;;32.50;34.40;;;;;;5032489;28;20185;-86
2022/08/02 11:39:09;;;;;;;5.78;5.47;;;32.70;34.40;;;;;;5032906;28;20271;-86
2022/08/02 11:41:35;;;;;;;5.68;5.25;;;33.00;33.70;;;;;;5025747;28;20239;-84
2022/08/02 11:44:00;;;;;;;6.00;5.53;;;32.80;33.60;;;;;;5025433;28;20192;-86
2022/08/02 11:46:26;;;;;;;6.20;5.70;;;33.00;33.60;;;;;;5027037;28;20197;-85
2022/08/02 11:48:52;;;;;;;5.80;5.50;;;33.30;33.00;;;;;;5026312;28;20292;-86
2022/08/02 11:51:18;;;;;;;6.13;5.72;;;33.60;32.90;;;;;;5029452;28;20189;-86
2022/08/02 11:53:51;;;;;;;6.03;5.63;;;33.60;32.70;;;;;;5032463;28;20185;-86
2022/08/02 11:56:28;;;;;;;5.80;5.50;;;33.50;33.00;;;;;;5022211;28;20196;-86
2022/08/02 11:59:04;;;;;;;6.35;5.88;;;33.90;32.30;;;;;;5022307;28;20233;-86
2022/08/02 12:01:31;;;;;;;5.88;5.53;;;33.80;31.90;;;;;;5024283;28;20182;-87
2022/08/02 12:03:57;;;;;;;5.70;5.40;;;33.50;32.50;;;;;;5030504;28;20188;-86
2022/08/02 12:06:24;;;;;;;6.30;5.90;;;33.80;32.20;;;;;;5025512;28;20185;-87
2022/08/02 12:08:50;;;;;;;6.35;5.68;;;34.10;31.30;;;;;;5021850;28;20213;-87
2022/08/02 12:11:19;;;;;;;6.00;5.50;;;34.20;30.90;;;;;;5028063;28;20205;-87
2022/08/02 12:13:45;;;;;;;5.75;5.45;;;34.60;30.60;;;;;;5030262;28;20189;-87
2022/08/02 12:21:41;;;;;;;6.20;5.80;;;34.80;29.90;;;;;;5029262;28;20200;-87
2022/08/02 12:24:07;;;;;;;5.68;5.35;;;35.10;30.00;;;;;;5030612;28;20307;-87
2022/08/02 12:26:43;;;;;;;6.03;5.72;;;35.10;29.80;;;;;;5026859;28;20189;-87
2022/08/02 12:29:10;;;;;;;6.00;5.70;;;34.60;29.70;;;;;;5025096;28;20208;-87
2022/08/02 12:31:42;;;;;;;5.30;5.00;;;34.40;30.00;;;;;;5029411;28;20185;-87
2022/08/02 12:34:17;;;;;;;6.10;5.65;;;34.50;30.00;;;;;;5025300;28;20181;-87
2022/08/02 12:36:55;;;;;;;5.60;5.30;;;34.50;30.00;;;;;;5025049;28;20182;-87
2022/08/02 12:39:45;;;;;;;6.03;5.57;;;34.60;29.60;;;;;;5025529;28;20262;-87
2022/08/02 12:42:12;;;;;;;5.78;5.47;;;35.10;29.80;;;;;;5029765;28;20279;-87
2022/08/02 12:44:54;;;;;;;6.20;5.90;;;35.30;29.10;;;;;;5031459;28;20809;-88
2022/08/02 12:47:20;;;;;;;5.70;5.28;;;35.80;28.80;;;;;;5041287;28;20181;-87
2022/08/02 12:50:15;;;;;;;6.07;5.70;;;35.80;28.80;;;;;;5024619;28;20595;-87
2022/08/02 12:52:40;;;;;;;5.60;5.30;;;36.10;28.30;;;;;;5023377;28;20204;-88
2022/08/02 12:55:21;;;;;;;6.22;5.82;;;36.30;27.90;;;;;;5021611;28;20195;-87
2022/08/02 12:57:53;;;;;;;7.95;5.90;;;36.30;27.80;;;;;;5024184;28;20224;-87
2022/08/02 13:00:24;;;;;;;6.00;5.70;;;35.90;27.90;;;;;;5025065;28;20593;-87
2022/08/02 13:02:50;;;;;;;5.45;5.10;;;36.20;27.60;;;;;;5023292;28;20213;-88
2022/08/02 13:05:15;;;;;;;5.70;5.20;;;34.90;28.20;;;;;;5023722;28;20243;-88
2022/08/02 13:07:41;;;;;;;5.95;5.57;;;34.80;29.30;;;;;;5027861;28;20212;-88